createdAt,value
2022-12-09T00:01:28.238Z,28.98
2022-12-09T00:04:40.714Z,29.73
2022-12-09T00:07:53.066Z,32.50
2022-12-09T00:11:05.288Z,31.88
2022-12-09T00:14:18.432Z,32.45
2022-12-09T00:17:30.514Z,31.15
2022-12-09T00:20:42.983Z,31.10
2022-12-09T00:23:57.082Z,30.23
2022-12-09T00:27:10.772Z,28.73
2022-12-09T00:30:23.132Z,29.38
2022-12-09T00:33:37.173Z,28.13
2022-12-09T00:36:49.417Z,30.28
2022-12-09T00:40:03.335Z,29.88
2022-12-09T00:43:15.572Z,29.63
2022-12-09T00:46:28.199Z,28.40
2022-12-09T00:49:40.443Z,30.18
2022-12-09T00:52:52.264Z,30.68
2022-12-09T00:56:04.405Z,29.90
2022-12-09T00:59:16.503Z,29.10
2022-12-09T01:02:28.556Z,29.73
2022-12-09T01:05:43.485Z,31.25
2022-12-09T01:08:56.977Z,31.83
2022-12-09T01:12:09.278Z,33.50
2022-12-09T01:15:21.122Z,32.65
2022-12-09T01:18:33.360Z,31.95
2022-12-09T01:21:45.755Z,32.45
2022-12-09T01:24:57.981Z,31.00
2022-12-09T01:28:10.069Z,33.98
2022-12-09T01:31:24.897Z,34.13
2022-12-09T01:34:37.181Z,34.90
2022-12-09T01:37:49.234Z,33.38
2022-12-09T01:41:01.632Z,32.00
2022-12-09T01:44:21.902Z,33.20
2022-12-09T01:47:34.220Z,34.15
2022-12-09T01:50:49.771Z,32.43
2022-12-09T01:54:02.557Z,35.35
2022-12-09T01:57:15.206Z,32.98
2022-12-09T02:00:29.241Z,31.83
2022-12-09T02:03:43.430Z,33.88
2022-12-09T02:06:56.222Z,33.80
2022-12-09T02:10:14.485Z,34.38
2022-12-09T02:13:36.380Z,33.50
2022-12-09T02:16:57.224Z,34.28
2022-12-09T02:20:17.457Z,32.23
2022-12-09T02:23:34.605Z,33.58
2022-12-09T02:26:51.783Z,33.38
2022-12-09T02:33:46.827Z,33.55
2022-12-09T02:37:07.488Z,32.70
2022-12-09T02:40:24.639Z,32.40
2022-12-09T02:43:46.652Z,31.70
2022-12-09T02:46:57.153Z,31.98
2022-12-09T02:50:16.173Z,33.58
2022-12-09T02:53:32.228Z,33.85
2022-12-09T02:56:48.434Z,27.08
2022-12-09T03:00:01.045Z,21.77
2022-12-09T03:03:19.155Z,26.55
2022-12-09T03:06:37.953Z,26.93
2022-12-09T03:09:55.565Z,19.38
2022-12-09T03:13:13.952Z,17.70
2022-12-09T03:16:32.034Z,16.23
2022-12-09T03:19:48.447Z,16.53
2022-12-09T03:23:05.661Z,16.53
2022-12-09T03:29:32.967Z,16.05
2022-12-09T03:32:48.049Z,16.50
2022-12-09T03:36:04.288Z,16.83
2022-12-09T03:39:20.675Z,15.13
2022-12-09T03:42:38.283Z,16.03
2022-12-09T03:45:50.586Z,16.75
2022-12-09T03:49:03.822Z,16.28
2022-12-09T03:52:21.779Z,15.08
2022-12-09T03:55:38.954Z,15.58
2022-12-09T04:02:04.070Z,16.58
2022-12-09T04:05:17.762Z,16.90
2022-12-09T04:08:29.914Z,17.03
2022-12-09T04:11:42.301Z,16.60
2022-12-09T04:14:54.399Z,16.68
2022-12-09T04:18:06.670Z,16.33
2022-12-09T04:21:20.815Z,16.93
2022-12-09T04:24:33.142Z,15.60
2022-12-09T04:27:45.586Z,16.55
2022-12-09T04:30:58.771Z,16.33
2022-12-09T04:34:11.498Z,16.45
2022-12-09T04:37:23.813Z,18.25
2022-12-09T04:40:36.210Z,17.08
2022-12-09T04:43:49.048Z,16.43
2022-12-09T04:47:01.239Z,16.75
2022-12-09T04:50:16.434Z,17.73
2022-12-09T04:53:29.278Z,17.45
2022-12-09T04:56:41.702Z,18.43
2022-12-09T04:59:54.395Z,19.43
2022-12-09T05:03:06.596Z,16.80
2022-12-09T05:06:20.627Z,17.85
2022-12-09T05:09:33.030Z,18.38
2022-12-09T05:12:45.377Z,18.75
2022-12-09T05:15:57.423Z,18.63
2022-12-09T05:19:09.774Z,19.63
2022-12-09T05:22:23.475Z,19.85
2022-12-09T05:25:35.575Z,17.80
2022-12-09T05:28:47.667Z,18.40
2022-12-09T05:31:59.709Z,18.95
2022-12-09T05:35:13.740Z,16.83
2022-12-09T05:38:25.847Z,19.53
2022-12-09T05:41:37.914Z,20.68
2022-12-09T05:44:49.912Z,22.63
2022-12-09T05:48:02.210Z,22.93
2022-12-09T05:51:18.829Z,24.83
2022-12-09T05:54:30.986Z,24.58
2022-12-09T05:57:43.747Z,26.15
2022-12-09T06:00:57.945Z,23.43
2022-12-09T06:04:10.341Z,23.55
2022-12-09T06:07:22.820Z,23.20
2022-12-09T06:10:35.591Z,25.60
2022-12-09T06:13:48.513Z,25.45
2022-12-09T06:17:00.916Z,24.20
2022-12-09T06:20:15.654Z,22.80
2022-12-09T06:23:27.772Z,20.43
2022-12-09T06:26:40.072Z,21.68
2022-12-09T06:29:51.878Z,20.85
2022-12-09T06:33:17.251Z,21.08
2022-12-09T06:36:18.552Z,20.13
2022-12-09T06:39:30.844Z,20.50
2022-12-09T06:42:43.228Z,20.88
2022-12-09T06:45:55.353Z,21.85
2022-12-09T06:49:08.027Z,21.00
2022-12-09T06:52:20.317Z,22.58
2022-12-09T06:55:32.399Z,21.38
2022-12-09T06:58:45.168Z,22.58
2022-12-09T07:01:57.733Z,22.85
2022-12-09T07:05:11.881Z,24.85
2022-12-09T07:08:24.837Z,22.38
2022-12-09T07:11:37.581Z,43.50
2022-12-09T07:14:49.778Z,21.68
2022-12-09T07:18:02.826Z,21.03
2022-12-09T07:21:18.106Z,21.58
2022-12-09T07:24:30.927Z,22.00
2022-12-09T07:27:43.625Z,21.10
2022-12-09T07:30:55.678Z,20.40
2022-12-09T07:34:09.305Z,20.15
2022-12-09T07:37:21.910Z,24.28
2022-12-09T07:40:34.128Z,24.20
2022-12-09T07:43:46.305Z,23.93
2022-12-09T07:46:58.597Z,22.25
2022-12-09T07:50:13.610Z,22.10
2022-12-09T07:53:26.057Z,22.88
2022-12-09T07:56:38.511Z,22.60
2022-12-09T07:59:51.107Z,23.53
2022-12-09T08:03:03.559Z,23.95
2022-12-09T08:06:20.451Z,22.68
2022-12-09T08:09:32.943Z,27.18
2022-12-09T08:12:45.486Z,30.10
2022-12-09T08:15:58.199Z,27.20
2022-12-09T08:19:10.330Z,30.03
2022-12-09T08:22:23.650Z,32.30
2022-12-09T08:25:35.943Z,25.38
2022-12-09T08:28:48.597Z,27.73
2022-12-09T08:32:01.074Z,26.78
2022-12-09T08:35:16.194Z,26.83
2022-12-09T08:38:28.285Z,31.50
2022-12-09T08:41:42.482Z,31.73
2022-12-09T08:45:01.608Z,29.30
2022-12-09T08:48:09.577Z,27.95
2022-12-09T08:51:23.767Z,28.50
2022-12-09T08:54:35.950Z,30.85
2022-12-09T08:57:48.303Z,32.25
2022-12-09T09:01:03.403Z,32.15
2022-12-09T09:04:18.519Z,31.68
2022-12-09T09:07:31.333Z,31.10
2022-12-09T09:10:45.087Z,32.85
2022-12-09T09:13:57.820Z,44.38
2022-12-09T09:17:10.180Z,33.20
2022-12-09T09:20:22.719Z,31.38
2022-12-09T09:23:34.748Z,31.40
2022-12-09T09:26:50.143Z,33.30
2022-12-09T09:30:02.345Z,38.43
2022-12-09T09:33:15.401Z,46.88
2022-12-09T09:36:30.919Z,33.48
2022-12-09T09:39:43.286Z,30.83
2022-12-09T09:42:58.685Z,29.45
2022-12-09T09:46:13.877Z,27.48
2022-12-09T09:49:32.944Z,27.65
2022-12-09T09:52:48.105Z,26.18
2022-12-09T09:56:05.719Z,26.73
2022-12-09T09:59:29.648Z,24.98
2022-12-09T10:03:02.458Z,65.03
2022-12-09T10:06:25.878Z,27.10
2022-12-09T10:09:44.462Z,28.15
2022-12-09T10:13:12.943Z,26.23
2022-12-09T10:16:28.784Z,28.83
2022-12-09T10:19:46.847Z,27.63
2022-12-09T10:23:04.005Z,27.20
2022-12-09T10:26:21.886Z,26.65
2022-12-09T10:29:50.696Z,27.23
2022-12-09T10:33:03.005Z,24.33
2022-12-09T10:36:34.015Z,25.33
2022-12-09T10:39:43.317Z,24.65
2022-12-09T10:43:13.810Z,24.43
2022-12-09T10:46:29.243Z,22.70
2022-12-09T10:49:42.304Z,22.05
2022-12-09T10:52:54.679Z,22.08
2022-12-09T10:56:11.064Z,20.93
2022-12-09T10:59:29.854Z,20.30
2022-12-09T11:02:42.860Z,19.85
2022-12-09T11:06:03.381Z,19.50
2022-12-09T11:09:26.223Z,20.95
2022-12-09T11:12:42.345Z,19.85
2022-12-09T11:16:01.218Z,19.48
2022-12-09T11:19:18.409Z,20.05
2022-12-09T11:25:59.440Z,20.13
2022-12-09T11:29:22.113Z,20.68
2022-12-09T11:32:34.717Z,20.50
2022-12-09T11:36:00.048Z,21.33
2022-12-09T11:39:31.923Z,20.23
2022-12-09T11:42:43.940Z,19.58
2022-12-09T11:45:55.942Z,19.18
2022-12-09T11:49:13.642Z,19.40
2022-12-09T11:52:35.144Z,20.33
2022-12-09T11:55:51.501Z,18.98
2022-12-09T11:59:07.807Z,19.50
2022-12-09T12:02:29.068Z,17.33
2022-12-09T12:05:45.635Z,15.33
2022-12-09T12:09:02.530Z,13.08
2022-12-09T12:15:34.339Z,15.65
2022-12-09T12:18:53.308Z,15.25
2022-12-09T12:22:56.082Z,14.50
2022-12-09T12:26:16.099Z,14.90
2022-12-09T12:29:42.428Z,15.78
2022-12-09T12:36:33.372Z,18.08
2022-12-09T12:39:55.708Z,18.83
2022-12-09T12:43:41.233Z,19.93
2022-12-09T12:47:06.232Z,18.93
2022-12-09T12:50:32.400Z,18.90
2022-12-09T12:53:51.040Z,19.00
2022-12-09T12:57:09.972Z,18.58
2022-12-09T13:00:26.283Z,18.90
2022-12-09T13:03:46.412Z,17.78
2022-12-09T13:07:04.983Z,18.83
2022-12-09T13:10:26.759Z,17.95
2022-12-09T13:13:43.032Z,16.95
2022-12-09T13:16:57.165Z,16.28
2022-12-09T13:20:13.067Z,15.83
2022-12-09T13:23:47.863Z,15.10
2022-12-09T13:27:06.907Z,13.93
2022-12-09T13:30:24.058Z,14.50
2022-12-09T13:33:47.218Z,14.78
2022-12-09T13:36:59.233Z,14.53
2022-12-09T13:40:32.351Z,13.60
2022-12-09T13:43:46.551Z,15.18
2022-12-09T13:46:58.596Z,13.68
2022-12-09T13:50:18.840Z,15.00
2022-12-09T13:53:35.052Z,14.68
2022-12-09T13:56:47.828Z,16.08
2022-12-09T14:00:03.059Z,16.88
2022-12-09T14:06:42.571Z,17.83
2022-12-09T14:10:00.259Z,16.95
2022-12-09T14:13:35.576Z,15.13
2022-12-09T14:16:47.776Z,14.53
2022-12-09T14:20:08.279Z,14.58
2022-12-09T14:23:23.697Z,14.60
2022-12-09T14:26:44.526Z,14.55
2022-12-09T14:30:00.434Z,13.78
2022-12-09T14:33:33.330Z,14.38
2022-12-09T14:36:48.731Z,13.05
2022-12-09T14:40:06.506Z,13.03
2022-12-09T14:43:50.136Z,13.03
2022-12-09T14:47:17.582Z,13.75
2022-12-09T14:50:32.778Z,13.80
2022-12-09T14:53:45.537Z,13.50
2022-12-09T14:57:01.952Z,15.18
2022-12-09T15:00:35.060Z,13.03
2022-12-09T15:03:49.023Z,12.75
2022-12-09T15:07:16.851Z,12.40
2022-12-09T15:13:47.152Z,13.10
2022-12-09T15:17:00.280Z,14.55
2022-12-09T15:20:25.761Z,15.48
2022-12-09T15:23:42.533Z,18.43
2022-12-09T15:27:07.053Z,15.48
2022-12-09T15:30:34.353Z,16.05
2022-12-09T15:33:53.386Z,16.78
2022-12-09T15:37:09.052Z,16.28
2022-12-09T15:40:27.541Z,15.45
2022-12-09T15:43:42.543Z,15.53
2022-12-09T15:46:57.816Z,16.18
2022-12-09T15:50:18.136Z,15.53
2022-12-09T15:53:34.775Z,18.15
2022-12-09T15:56:50.632Z,17.10
2022-12-09T16:00:06.098Z,16.13
2022-12-09T16:03:21.425Z,16.43
2022-12-09T16:06:37.702Z,18.03
2022-12-09T16:10:08.208Z,17.18
2022-12-09T16:13:23.123Z,16.88
2022-12-09T16:16:43.503Z,17.48
2022-12-09T16:19:55.705Z,24.88
2022-12-09T16:23:10.568Z,20.98
2022-12-09T16:26:28.194Z,17.78
2022-12-09T16:29:42.658Z,17.60
2022-12-09T16:32:57.078Z,19.18
2022-12-09T16:36:14.691Z,18.53
2022-12-09T16:39:42.882Z,20.60
2022-12-09T16:42:56.914Z,17.88
2022-12-09T16:46:31.512Z,19.90
2022-12-09T16:49:43.936Z,17.53
2022-12-09T16:52:56.183Z,19.55
2022-12-09T16:56:09.517Z,19.23
2022-12-09T16:59:21.364Z,33.88
2022-12-09T17:02:38.187Z,18.68
2022-12-09T17:09:00.967Z,18.00
2022-12-09T17:12:13.730Z,18.45
2022-12-09T17:15:26.835Z,19.15
2022-12-09T17:18:39.514Z,18.20
2022-12-09T17:21:52.215Z,18.53
2022-12-09T17:25:04.328Z,17.73
2022-12-09T17:28:16.818Z,17.23
2022-12-09T17:31:30.147Z,17.73
2022-12-09T17:34:42.431Z,20.35
2022-12-09T17:37:57.223Z,20.10
2022-12-09T17:41:16.099Z,19.93
2022-12-09T17:44:28.633Z,21.73
2022-12-09T17:47:40.536Z,21.55
2022-12-09T17:50:52.400Z,21.98
2022-12-09T17:54:05.256Z,24.45
2022-12-09T17:57:17.731Z,25.98
2022-12-09T18:00:30.080Z,28.00
2022-12-09T18:03:59.376Z,28.13
2022-12-09T18:06:55.866Z,27.75
2022-12-09T18:10:08.502Z,26.88
2022-12-09T18:13:20.886Z,25.58
2022-12-09T18:16:32.856Z,26.50
2022-12-09T18:19:45.536Z,25.23
2022-12-09T18:22:57.445Z,24.20
2022-12-09T18:26:13.572Z,24.88
2022-12-09T18:29:25.661Z,25.53
2022-12-09T18:32:38.644Z,23.70
2022-12-09T18:35:50.568Z,25.20
2022-12-09T18:39:03.717Z,24.60
2022-12-09T18:42:15.623Z,24.73
2022-12-09T18:45:27.527Z,23.30
2022-12-09T18:48:41.736Z,23.90
2022-12-09T18:51:55.734Z,25.23
2022-12-09T18:55:07.641Z,21.63
2022-12-09T18:58:31.573Z,22.48
2022-12-09T19:01:38.514Z,20.90
2022-12-09T19:04:50.885Z,19.78
2022-12-09T19:08:02.888Z,18.68
2022-12-09T19:11:15.564Z,17.40
2022-12-09T19:14:29.313Z,19.23
2022-12-09T19:17:42.707Z,18.63
2022-12-09T19:20:54.733Z,16.08
2022-12-09T19:24:07.159Z,16.18
2022-12-09T19:27:19.149Z,16.73
2022-12-09T19:30:31.255Z,16.93
2022-12-09T19:33:43.264Z,17.28
2022-12-09T19:36:57.537Z,15.93
2022-12-09T19:40:11.758Z,14.60
2022-12-09T19:43:23.770Z,14.45
2022-12-09T19:46:38.619Z,14.95
2022-12-09T19:49:50.896Z,15.70
2022-12-09T19:53:04.054Z,17.55
2022-12-09T19:56:19.509Z,17.88
2022-12-09T19:59:32.200Z,16.98
2022-12-09T20:02:44.937Z,16.00
2022-12-09T20:06:00.073Z,17.00
2022-12-09T20:09:14.631Z,17.15
2022-12-09T20:12:26.635Z,16.20
2022-12-09T20:15:41.938Z,15.58
2022-12-09T20:18:54.861Z,13.05
2022-12-09T20:22:06.875Z,12.45
2022-12-09T20:25:19.217Z,12.48
2022-12-09T20:28:31.269Z,13.23
2022-12-09T20:31:46.113Z,13.95
2022-12-09T20:34:58.081Z,13.63
2022-12-09T20:38:11.159Z,13.48
2022-12-09T20:41:23.634Z,13.08
2022-12-09T20:44:36.480Z,12.98
2022-12-09T20:47:48.330Z,14.03
2022-12-09T20:51:00.538Z,15.08
2022-12-09T20:54:14.178Z,14.10
2022-12-09T20:57:26.301Z,13.28
2022-12-09T21:00:38.405Z,13.60
2022-12-09T21:03:51.683Z,13.30
2022-12-09T21:07:04.246Z,13.58
2022-12-09T21:10:19.264Z,15.35
2022-12-09T21:13:31.165Z,13.80
2022-12-09T21:16:47.011Z,14.35
2022-12-09T21:19:58.990Z,12.65
2022-12-09T21:23:33.340Z,13.90
2022-12-09T21:26:27.660Z,14.75
2022-12-09T21:29:40.322Z,15.15
2022-12-09T21:32:52.216Z,14.78
2022-12-09T21:36:04.172Z,14.35
2022-12-09T21:39:19.462Z,15.18
2022-12-09T21:42:31.388Z,16.15
2022-12-09T21:45:43.394Z,15.35
2022-12-09T21:49:03.308Z,16.73
2022-12-09T21:52:12.434Z,14.95
2022-12-09T21:55:24.650Z,13.38
2022-12-09T21:58:38.248Z,13.40
2022-12-09T22:01:50.631Z,13.40
2022-12-09T22:05:02.658Z,13.05
2022-12-09T22:08:14.732Z,12.38
2022-12-09T22:11:29.875Z,12.60
2022-12-09T22:14:41.975Z,12.30
2022-12-09T22:17:53.987Z,11.48
2022-12-09T22:21:27.252Z,11.08
2022-12-09T22:24:25.918Z,11.65
2022-12-09T22:27:37.938Z,12.00
2022-12-09T22:30:49.841Z,11.18
2022-12-09T22:34:06.704Z,11.28
2022-12-09T22:37:43.035Z,10.63
2022-12-09T22:40:36.221Z,10.18
2022-12-09T22:43:49.939Z,11.28
2022-12-09T22:47:02.088Z,11.75
2022-12-09T22:50:15.918Z,10.95
2022-12-09T22:53:27.858Z,10.78
2022-12-09T22:56:40.862Z,9.38
2022-12-09T22:59:52.681Z,10.85
2022-12-09T23:03:04.674Z,10.73
2022-12-09T23:06:17.811Z,11.45
2022-12-09T23:09:31.037Z,10.88
2022-12-09T23:12:43.035Z,11.13
2022-12-09T23:15:55.983Z,10.70
2022-12-09T23:19:08.611Z,10.88
2022-12-09T23:22:20.499Z,10.28
2022-12-09T23:25:32.430Z,10.78
2022-12-09T23:28:46.735Z,10.28
2022-12-09T23:31:58.540Z,9.75
2022-12-09T23:35:12.275Z,9.83
2022-12-09T23:38:24.231Z,10.08
2022-12-09T23:41:36.279Z,10.53
2022-12-09T23:44:49.164Z,10.20
2022-12-09T23:48:02.242Z,9.78
2022-12-09T23:51:20.998Z,9.18
2022-12-09T23:54:35.156Z,9.58
2022-12-09T23:57:48.953Z,10.10
